Time;durP1;ratioP1;P1;durP2;ratioP2;P2;SDS_P1;SDS_P2;PMS_P1;PMS_P2;Temp;Humidity;BMP_temperature;BMP_pressure;BME280_temperature;BME280_humidity;BME280_pressure;Samples;Min_cycle;Max_cycle;Signal;HPM_P1;HPM_P2
2022/11/03 00:00:58;;;;;;;16.30;7.10;;;6.20;99.90;;;;;;5132483;27;20459;-71
2022/11/03 00:03:25;;;;;;;15.03;6.63;;;6.10;99.90;;;;;;5132412;27;20490;-71
2022/11/03 00:06:07;;;;;;;17.63;7.50;;;6.20;99.90;;;;;;5133247;27;20459;-71
2022/11/03 00:08:36;;;;;;;11.90;6.90;;;6.20;99.90;;;;;;5153794;27;20443;-72
2022/11/03 00:11:07;;;;;;;19.30;7.50;;;6.10;99.90;;;;;;5143773;27;20539;-72
2022/11/03 00:13:34;;;;;;;19.70;9.80;;;6.10;99.90;;;;;;5132580;27;20791;-71
2022/11/03 00:16:01;;;;;;;17.43;7.90;;;6.10;99.90;;;;;;5134289;27;20457;-71
2022/11/03 00:18:27;;;;;;;14.97;8.00;;;6.10;99.90;;;;;;5153527;27;20455;-71
2022/11/03 00:20:59;;;;;;;19.17;7.77;;;6.10;99.90;;;;;;5152742;27;20451;-71
2022/11/03 00:23:28;;;;;;;18.13;7.33;;;6.10;99.90;;;;;;5137226;27;20482;-71
2022/11/03 00:25:54;;;;;;;17.10;7.60;;;6.10;99.90;;;;;;5132356;27;20940;-72
2022/11/03 00:28:22;;;;;;;18.17;7.20;;;6.00;99.90;;;;;;5112495;28;20448;-72
2022/11/03 00:30:49;;;;;;;18.67;7.57;;;6.00;99.90;;;;;;5111940;28;20448;-71
2022/11/03 00:33:16;;;;;;;13.27;6.60;;;6.00;99.90;;;;;;5112101;27;20475;-71
2022/11/03 00:35:42;;;;;;;10.13;6.50;;;6.00;99.90;;;;;;5112173;28;20500;-71
2022/11/03 00:38:09;;;;;;;19.13;7.27;;;5.90;99.90;;;;;;5149319;27;20451;-71
2022/11/03 00:40:36;;;;;;;14.90;7.23;;;5.90;99.90;;;;;;5131899;27;20958;-71
2022/11/03 00:43:02;;;;;;;14.07;6.73;;;6.00;99.90;;;;;;5132734;28;20505;-71
2022/11/03 00:45:30;;;;;;;14.77;6.60;;;6.00;99.90;;;;;;5111946;28;20460;-71
2022/11/03 00:50:41;;;;;;;13.03;6.70;;;6.00;99.90;;;;;;5145280;27;20441;-71
2022/11/03 00:53:08;;;;;;;19.50;7.50;;;6.00;99.90;;;;;;5132110;28;20459;-71
2022/11/03 00:55:35;;;;;;;19.53;7.17;;;6.00;99.90;;;;;;5111910;28;20460;-71
2022/11/03 00:58:01;;;;;;;12.63;6.17;;;6.10;99.90;;;;;;5148035;27;20447;-71
2022/11/03 01:00:29;;;;;;;29.57;7.60;;;6.10;99.90;;;;;;5132153;27;20444;-71
2022/11/03 01:02:56;;;;;;;12.63;7.10;;;6.10;99.90;;;;;;5131486;28;20487;-71
2022/11/03 01:08:07;;;;;;;18.33;6.63;;;6.10;99.90;;;;;;5133765;27;20430;-71
2022/11/03 01:10:37;;;;;;;13.47;6.90;;;6.10;99.90;;;;;;5148536;27;20443;-71
2022/11/03 01:13:04;;;;;;;25.23;6.97;;;6.10;99.90;;;;;;5132255;27;20549;-72
2022/11/03 01:15:32;;;;;;;14.63;6.67;;;6.10;99.90;;;;;;5113168;27;20450;-71
2022/11/03 01:17:58;;;;;;;16.43;6.30;;;6.10;99.90;;;;;;5152469;27;20443;-71
2022/11/03 01:20:25;;;;;;;15.57;6.60;;;6.10;99.90;;;;;;5152620;27;20481;-72
2022/11/03 01:22:52;;;;;;;11.97;5.83;;;6.10;99.90;;;;;;5152468;27;20493;-71
2022/11/03 01:25:18;;;;;;;8.37;5.83;;;6.10;99.90;;;;;;5117179;27;20447;-72
2022/11/03 01:27:45;;;;;;;20.00;6.33;;;6.10;99.90;;;;;;5149911;27;20463;-72
2022/11/03 01:30:12;;;;;;;19.10;6.53;;;6.20;99.90;;;;;;5152418;27;20451;-71
2022/11/03 01:32:40;;;;;;;13.60;5.80;;;6.20;99.90;;;;;;5154185;27;20521;-72
2022/11/03 01:35:07;;;;;;;9.67;6.13;;;6.20;99.90;;;;;;5140336;27;20451;-72
2022/11/03 01:37:34;;;;;;;20.17;5.80;;;6.20;99.90;;;;;;5153246;27;20521;-72
2022/11/03 01:40:00;;;;;;;18.40;5.43;;;6.30;99.90;;;;;;5156324;27;20876;-72
2022/11/03 01:42:27;;;;;;;11.30;5.90;;;6.30;99.90;;;;;;5146085;27;20491;-72
2022/11/03 01:44:54;;;;;;;14.27;5.90;;;6.30;99.90;;;;;;5128258;27;20458;-73
2022/11/03 01:47:27;;;;;;;17.40;6.10;;;6.40;99.90;;;;;;5145620;27;20451;-71
2022/11/03 01:50:00;;;;;;;10.53;5.90;;;6.40;99.90;;;;;;5155877;27;20452;-72
2022/11/03 01:52:32;;;;;;;16.27;6.23;;;6.40;99.90;;;;;;5156165;27;20550;-72
2022/11/03 01:55:02;;;;;;;17.57;6.00;;;6.40;99.90;;;;;;5118758;27;20510;-72
2022/11/03 01:57:35;;;;;;;14.63;5.80;;;6.40;99.90;;;;;;5147367;27;20444;-71
2022/11/03 02:00:03;;;;;;;12.13;5.70;;;6.40;99.90;;;;;;5120369;27;20449;-72
2022/11/03 02:02:30;;;;;;;14.70;6.53;;;6.40;99.90;;;;;;5114573;28;20484;-72
2022/11/03 02:05:01;;;;;;;17.80;5.87;;;6.30;99.90;;;;;;5132192;27;20453;-72
2022/11/03 02:07:33;;;;;;;21.03;6.30;;;6.30;99.90;;;;;;5140108;27;20452;-71
2022/11/03 02:10:00;;;;;;;13.90;6.53;;;6.30;99.90;;;;;;5151750;27;20457;-71
2022/11/03 02:12:27;;;;;;;9.20;5.77;;;6.30;99.90;;;;;;5134847;27;20473;-71
2022/11/03 02:14:58;;;;;;;7.97;5.20;;;6.30;99.90;;;;;;5135069;27;20450;-71
2022/11/03 02:17:27;;;;;;;17.40;5.97;;;6.20;99.90;;;;;;5154398;27;20460;-72
2022/11/03 02:19:59;;;;;;;16.33;5.70;;;6.20;99.90;;;;;;5144880;27;20452;-71
2022/11/03 02:22:48;;;;;;;9.13;5.23;;;6.10;99.90;;;;;;5129038;27;20458;-72
2022/11/03 02:25:19;;;;;;;13.53;5.30;;;6.10;99.90;;;;;;5119436;27;20448;-71
2022/11/03 02:27:47;;;;;;;21.97;6.40;;;6.10;99.90;;;;;;5114712;28;20455;-71
2022/11/03 02:30:14;;;;;;;9.33;5.20;;;6.10;99.90;;;;;;5114273;28;20812;-72
2022/11/03 02:32:48;;;;;;;13.83;6.03;;;6.10;99.90;;;;;;5127426;27;20479;-71
2022/11/03 02:35:22;;;;;;;11.70;5.87;;;6.10;99.90;;;;;;5127738;27;21036;-71
2022/11/03 02:37:53;;;;;;;19.23;6.07;;;6.00;99.90;;;;;;5155362;27;20894;-72
2022/11/03 02:40:26;;;;;;;11.97;5.83;;;5.90;99.90;;;;;;5136443;27;20451;-72
2022/11/03 02:42:54;;;;;;;11.13;5.20;;;5.90;99.90;;;;;;5143142;27;20481;-72
2022/11/03 02:45:24;;;;;;;10.50;5.60;;;5.90;99.90;;;;;;5126538;27;20509;-72
2022/11/03 02:47:55;;;;;;;7.67;5.13;;;5.90;99.90;;;;;;5155895;27;20787;-71
2022/11/03 02:50:27;;;;;;;20.80;6.10;;;5.90;99.90;;;;;;5155482;27;20458;-72
2022/11/03 02:52:53;;;;;;;11.47;5.33;;;5.90;99.90;;;;;;5145797;27;20491;-71
2022/11/03 02:55:37;;;;;;;11.77;6.10;;;5.80;99.90;;;;;;5130615;27;20453;-71
2022/11/03 02:58:12;;;;;;;16.37;5.50;;;5.80;99.90;;;;;;5133236;27;20447;-71
2022/11/03 03:00:45;;;;;;;13.20;6.10;;;5.80;99.90;;;;;;5134320;27;20447;-72
2022/11/03 03:03:17;;;;;;;17.37;5.77;;;5.80;99.90;;;;;;5144507;27;20845;-72
2022/11/03 03:05:46;;;;;;;9.17;5.67;;;5.80;99.90;;;;;;5117668;27;20461;-72
2022/11/03 03:08:14;;;;;;;12.93;5.87;;;5.80;99.90;;;;;;5129921;27;20952;-71
2022/11/03 03:10:44;;;;;;;21.33;6.40;;;5.80;99.90;;;;;;5133603;27;20937;-72
2022/11/03 03:13:17;;;;;;;12.07;5.77;;;5.80;99.90;;;;;;5134337;27;20543;-72
2022/11/03 03:15:47;;;;;;;17.60;5.43;;;5.80;99.90;;;;;;5133395;27;20456;-71
2022/11/03 03:18:23;;;;;;;23.60;6.27;;;5.70;99.90;;;;;;5134119;27;20460;-72
2022/11/03 03:20:54;;;;;;;16.13;6.00;;;5.70;99.90;;;;;;5133674;27;20445;-72
2022/11/03 03:23:23;;;;;;;10.20;5.53;;;5.70;99.90;;;;;;5146657;27;20512;-72
2022/11/03 03:25:55;;;;;;;9.13;5.70;;;5.70;99.90;;;;;;5116735;27;20450;-72
2022/11/03 03:28:30;;;;;;;15.30;5.73;;;5.70;99.90;;;;;;5113347;28;20443;-72
2022/11/03 03:30:59;;;;;;;13.50;5.43;;;5.70;99.90;;;;;;5147591;27;20451;-72
2022/11/03 03:33:28;;;;;;;16.53;5.53;;;5.70;99.90;;;;;;5140084;27;20510;-72
2022/11/03 03:35:57;;;;;;;15.63;5.80;;;5.60;99.90;;;;;;5114432;27;20454;-72
2022/11/03 03:38:29;;;;;;;16.23;5.60;;;5.60;99.90;;;;;;5113347;28;20456;-72
2022/11/03 03:40:59;;;;;;;13.50;6.30;;;5.60;99.90;;;;;;5112824;28;20521;-72
2022/11/03 03:43:29;;;;;;;16.60;6.40;;;5.60;99.90;;;;;;5115370;27;20478;-72
2022/11/03 03:45:59;;;;;;;10.07;6.00;;;5.50;99.90;;;;;;5122431;27;20518;-72
2022/11/03 03:48:26;;;;;;;18.30;6.20;;;5.50;99.90;;;;;;5133741;27;20443;-72
2022/11/03 03:50:53;;;;;;;17.67;5.83;;;5.50;99.90;;;;;;5133222;27;20890;-71
2022/11/03 03:53:20;;;;;;;11.93;5.60;;;5.50;99.90;;;;;;5145431;27;20465;-72
2022/11/03 03:55:49;;;;;;;19.47;6.80;;;5.50;99.90;;;;;;5118948;27;20519;-72
2022/11/03 03:58:17;;;;;;;10.53;5.40;;;5.50;99.90;;;;;;5151924;27;20445;-72
2022/11/03 04:00:45;;;;;;;13.00;6.03;;;5.50;99.90;;;;;;5153400;27;20455;-72
2022/11/03 04:03:16;;;;;;;13.20;5.47;;;5.40;99.90;;;;;;5142505;27;20980;-71
2022/11/03 04:05:43;;;;;;;14.33;6.10;;;5.40;99.90;;;;;;5116249;27;20482;-72
2022/11/03 04:08:10;;;;;;;13.50;5.60;;;5.40;99.90;;;;;;5112718;28;20466;-71
2022/11/03 04:10:36;;;;;;;19.40;7.13;;;5.40;99.90;;;;;;5125992;27;20449;-71
2022/11/03 04:24:01;;;;;;;13.20;6.33;;;5.30;99.90;;;;;;5116913;27;20934;-72
2022/11/03 04:26:28;;;;;;;16.27;6.70;;;5.30;99.90;;;;;;5111963;28;20457;-72
2022/11/03 04:28:57;;;;;;;17.17;6.87;;;5.30;99.90;;;;;;5119066;27;20444;-72
2022/11/03 04:31:28;;;;;;;18.40;6.40;;;5.30;99.90;;;;;;5152790;27;20469;-72
2022/11/03 04:33:56;;;;;;;16.13;6.13;;;5.30;99.90;;;;;;5135637;27;20463;-71
2022/11/03 04:36:24;;;;;;;21.53;7.00;;;5.30;99.90;;;;;;5112135;28;20456;-72
2022/11/03 04:38:52;;;;;;;13.07;5.90;;;5.20;99.90;;;;;;5121866;28;20441;-72
2022/11/03 04:41:21;;;;;;;16.80;6.93;;;5.30;99.90;;;;;;5132211;27;20960;-72
2022/11/03 04:43:49;;;;;;;14.90;6.63;;;5.30;99.90;;;;;;5147543;27;20495;-71
2022/11/03 04:46:20;;;;;;;18.93;6.20;;;5.30;99.90;;;;;;5113979;27;20450;-71
2022/11/03 04:48:48;;;;;;;14.73;6.00;;;5.30;99.90;;;;;;5117145;28;20451;-71
2022/11/03 04:51:17;;;;;;;17.30;6.77;;;5.20;99.90;;;;;;5150608;27;20448;-71
2022/11/03 04:53:49;;;;;;;15.53;6.23;;;5.20;99.90;;;;;;5138652;27;20466;-71
2022/11/03 04:56:19;;;;;;;27.53;6.73;;;5.20;99.90;;;;;;5131128;28;20485;-70
2022/11/03 04:58:47;;;;;;;18.37;6.53;;;5.30;99.90;;;;;;5130991;28;20544;-71
2022/11/03 05:01:16;;;;;;;14.43;6.77;;;5.30;99.90;;;;;;5129459;27;20477;-71
2022/11/03 05:03:44;;;;;;;16.67;7.70;;;5.20;99.90;;;;;;5145865;27;20482;-71
2022/11/03 05:06:15;;;;;;;14.70;6.50;;;5.20;99.90;;;;;;5119252;27;20453;-71
2022/11/03 05:08:44;;;;;;;20.87;7.20;;;5.20;99.90;;;;;;5136678;27;20512;-71
2022/11/03 05:11:20;;;;;;;19.73;6.87;;;5.10;99.90;;;;;;5130017;27;20446;-71
2022/11/03 05:13:47;;;;;;;13.03;7.03;;;5.20;99.90;;;;;;5144707;27;20548;-71
2022/11/03 05:16:14;;;;;;;14.73;6.33;;;5.20;99.90;;;;;;5137108;27;20453;-71
2022/11/03 05:18:44;;;;;;;11.03;6.43;;;5.20;99.90;;;;;;5136764;27;20476;-71
2022/11/03 05:21:15;;;;;;;14.30;6.10;;;5.10;99.90;;;;;;5136092;27;20446;-71
2022/11/03 05:23:46;;;;;;;20.57;7.23;;;5.10;99.90;;;;;;5149302;27;20975;-71
2022/11/03 05:26:17;;;;;;;21.20;7.77;;;5.10;99.90;;;;;;5120145;27;20452;-70
2022/11/03 05:28:46;;;;;;;18.50;6.77;;;5.10;99.90;;;;;;5121106;27;20449;-70
2022/11/03 05:31:21;;;;;;;19.63;7.80;;;5.10;99.90;;;;;;5135780;27;20453;-70
2022/11/03 05:33:48;;;;;;;13.60;6.10;;;5.00;99.90;;;;;;5149154;27;20544;-71
2022/11/03 05:36:20;;;;;;;14.83;6.53;;;5.00;99.90;;;;;;5128032;27;20457;-71
2022/11/03 05:38:47;;;;;;;14.93;7.07;;;5.00;99.90;;;;;;5127350;27;20476;-71
2022/11/03 05:41:20;;;;;;;20.17;7.03;;;5.00;99.90;;;;;;5123898;27;21017;-71
2022/11/03 05:43:52;;;;;;;14.63;7.10;;;5.00;99.90;;;;;;5128215;27;20992;-71
2022/11/03 05:46:19;;;;;;;14.90;6.90;;;5.00;99.90;;;;;;5122270;27;20447;-71
2022/11/03 05:48:46;;;;;;;13.47;6.10;;;5.00;99.90;;;;;;5127452;27;20456;-71
2022/11/03 05:51:19;;;;;;;13.30;6.70;;;5.00;99.90;;;;;;5129050;27;20970;-71
2022/11/03 05:53:46;;;;;;;15.50;6.60;;;5.00;99.90;;;;;;5131011;27;20477;-71
2022/11/03 05:56:18;;;;;;;18.53;6.90;;;5.00;99.90;;;;;;5130952;27;20442;-71
2022/11/03 05:58:46;;;;;;;18.23;6.83;;;4.90;99.90;;;;;;5129665;27;20500;-71
2022/11/03 06:01:16;;;;;;;11.23;6.57;;;4.90;99.90;;;;;;5130597;27;20945;-71
2022/11/03 06:03:43;;;;;;;19.60;7.17;;;4.90;99.90;;;;;;5132012;27;20492;-71
2022/11/03 06:06:16;;;;;;;13.20;6.90;;;4.90;99.90;;;;;;5130341;27;20483;-71
2022/11/03 06:08:44;;;;;;;12.77;7.27;;;4.90;99.90;;;;;;5131738;27;20481;-71
2022/11/03 06:11:20;;;;;;;14.57;7.20;;;4.90;99.90;;;;;;5131803;27;20442;-71
2022/11/03 06:13:46;;;;;;;13.20;6.50;;;4.90;99.90;;;;;;5129369;27;20496;-71
2022/11/03 06:16:42;;;;;;;15.83;7.27;;;5.00;99.90;;;;;;5131101;27;20441;-71
2022/11/03 06:19:25;;;;;;;19.00;8.03;;;5.00;99.90;;;;;;5129826;27;20448;-70
2022/11/03 06:21:54;;;;;;;14.90;7.40;;;5.00;99.90;;;;;;5130962;27;21055;-70
2022/11/03 06:24:28;;;;;;;21.60;6.97;;;5.00;99.90;;;;;;5130419;27;20481;-70
2022/11/03 06:26:56;;;;;;;15.00;6.10;;;5.10;99.90;;;;;;5130254;27;20458;-71
2022/11/03 06:29:23;;;;;;;15.90;6.80;;;5.10;99.90;;;;;;5128286;27;20454;-71
2022/11/03 06:31:52;;;;;;;14.50;7.07;;;5.10;99.90;;;;;;5129120;27;20510;-71
2022/11/03 06:34:32;;;;;;;9.27;6.17;;;5.10;99.90;;;;;;5129204;27;20979;-71
2022/11/03 06:37:05;;;;;;;18.87;6.57;;;5.10;99.90;;;;;;5129363;27;21113;-71
2022/11/03 06:39:33;;;;;;;17.40;6.90;;;5.10;99.90;;;;;;5129468;27;20442;-71
2022/11/03 06:42:10;;;;;;;20.03;7.03;;;5.10;99.90;;;;;;5129290;27;20821;-71
2022/11/03 06:44:40;;;;;;;18.27;6.00;;;5.20;99.90;;;;;;5128251;27;20473;-71
2022/11/03 06:47:20;;;;;;;12.50;6.60;;;5.20;99.90;;;;;;5127507;27;20449;-70
2022/11/03 06:49:48;;;;;;;12.70;6.90;;;5.20;99.90;;;;;;5129169;27;20461;-71
2022/11/03 06:52:24;;;;;;;22.90;8.43;;;5.30;99.90;;;;;;5127957;27;20494;-71
2022/11/03 06:54:56;;;;;;;11.73;6.30;;;5.40;99.90;;;;;;5127383;27;20804;-71
2022/11/03 06:57:23;;;;;;;22.17;8.00;;;5.40;99.90;;;;;;5128504;27;20578;-71
2022/11/03 06:59:51;;;;;;;18.80;6.90;;;5.40;99.90;;;;;;5128341;27;20446;-70
2022/11/03 07:02:46;;;;;;;15.57;7.87;;;5.50;99.90;;;;;;5128450;27;20480;-72
2022/11/03 07:05:21;;;;;;;15.50;6.80;;;5.60;99.90;;;;;;5126772;27;20496;-72
2022/11/03 07:07:48;;;;;;;18.53;7.63;;;5.60;99.90;;;;;;5128994;27;20533;-72
2022/11/03 07:10:16;;;;;;;19.30;7.97;;;5.70;99.90;;;;;;5127839;27;20499;-72
2022/11/03 07:12:43;;;;;;;21.30;6.87;;;5.70;99.90;;;;;;5128944;27;20818;-72
2022/11/03 07:15:22;;;;;;;17.53;6.80;;;5.70;99.90;;;;;;5126813;27;20442;-71
2022/11/03 07:17:49;;;;;;;14.40;7.00;;;5.90;99.90;;;;;;5127214;27;20486;-71
2022/11/03 07:20:17;;;;;;;17.73;7.27;;;6.10;99.90;;;;;;5128474;27;20451;-71
2022/11/03 07:22:45;;;;;;;17.07;7.07;;;6.30;99.90;;;;;;5127493;27;20792;-72
2022/11/03 07:25:18;;;;;;;19.50;6.53;;;6.60;99.90;;;;;;5126018;27;20489;-73
2022/11/03 07:27:48;;;;;;;14.90;7.30;;;6.80;99.90;;;;;;5128350;27;20488;-71
2022/11/03 07:30:21;;;;;;;25.17;6.80;;;6.90;99.90;;;;;;5125905;27;20811;-72
2022/11/03 07:32:49;;;;;;;17.70;7.20;;;7.00;99.90;;;;;;5127871;27;20484;-70
2022/11/03 07:35:28;;;;;;;12.30;6.23;;;7.20;99.90;;;;;;5128183;27;20929;-70
2022/11/03 07:37:55;;;;;;;17.60;7.40;;;7.40;99.90;;;;;;5129322;27;20459;-70
2022/11/03 07:40:26;;;;;;;14.93;7.20;;;7.80;99.90;;;;;;5129798;27;20457;-72
2022/11/03 07:42:57;;;;;;;11.77;6.43;;;8.10;99.90;;;;;;5128755;27;20484;-71
2022/11/03 07:45:37;;;;;;;15.63;7.07;;;8.40;99.90;;;;;;5126272;27;20499;-71
2022/11/03 07:48:19;;;;;;;16.27;6.60;;;8.60;99.90;;;;;;5130101;27;21019;-71
2022/11/03 07:50:46;;;;;;;15.80;7.20;;;9.00;99.90;;;;;;5128440;27;20975;-70
2022/11/03 07:53:19;;;;;;;14.40;6.70;;;9.20;99.90;;;;;;5128995;27;20463;-73
2022/11/03 07:55:47;;;;;;;13.70;6.17;;;9.50;99.90;;;;;;5128337;27;20453;-73
2022/11/03 07:58:22;;;;;;;17.33;6.90;;;9.70;99.90;;;;;;5128175;27;20453;-72
2022/11/03 08:00:50;;;;;;;16.30;7.03;;;9.80;99.90;;;;;;5128877;27;20533;-72
2022/11/03 08:03:26;;;;;;;11.93;6.70;;;9.90;99.90;;;;;;5128715;27;20475;-72
2022/11/03 08:05:53;;;;;;;16.00;5.97;;;10.10;99.90;;;;;;5128399;27;20506;-72
2022/11/03 08:08:19;;;;;;;16.83;6.23;;;10.20;99.90;;;;;;5128122;27;20453;-73
2022/11/03 08:10:47;;;;;;;17.00;6.00;;;10.40;99.90;;;;;;5128021;27;20464;-73
2022/11/03 08:13:14;;;;;;;16.93;6.23;;;10.40;99.90;;;;;;5128149;27;20457;-73
2022/11/03 08:15:41;;;;;;;12.07;6.70;;;10.40;99.90;;;;;;5127511;27;20441;-73
2022/11/03 08:18:07;;;;;;;9.90;6.33;;;10.30;99.90;;;;;;5128655;27;20442;-73
2022/11/03 08:20:34;;;;;;;21.03;6.30;;;10.20;99.90;;;;;;5128123;27;20450;-73
2022/11/03 08:23:01;;;;;;;14.53;6.30;;;10.00;99.90;;;;;;5128153;27;20468;-73
2022/11/03 08:25:27;;;;;;;23.63;5.83;;;10.00;99.90;;;;;;5126336;27;20525;-72
2022/11/03 08:27:55;;;;;;;15.63;6.37;;;9.90;99.90;;;;;;5128099;27;20502;-72
2022/11/03 08:30:22;;;;;;;16.73;6.10;;;9.80;99.90;;;;;;5127526;27;20457;-72
2022/11/03 08:32:49;;;;;;;17.60;6.60;;;9.80;99.90;;;;;;5127658;27;20481;-72
2022/11/03 08:35:15;;;;;;;14.13;6.17;;;9.80;99.90;;;;;;5125813;27;20449;-73
2022/11/03 08:37:42;;;;;;;21.90;7.10;;;9.90;99.90;;;;;;5128518;27;20454;-73
2022/11/03 08:40:10;;;;;;;11.47;6.03;;;10.10;99.90;;;;;;5128469;27;20449;-73
2022/11/03 08:42:37;;;;;;;11.90;6.07;;;10.30;99.90;;;;;;5126900;27;20548;-73
2022/11/03 08:45:06;;;;;;;18.10;6.53;;;10.50;99.90;;;;;;5127612;27;20996;-72
2022/11/03 08:47:32;;;;;;;15.43;5.50;;;10.50;99.90;;;;;;5127621;27;20450;-72
2022/11/03 08:49:59;;;;;;;19.23;6.00;;;10.60;99.90;;;;;;5128084;28;20454;-73
2022/11/03 08:52:27;;;;;;;10.83;5.53;;;10.70;99.90;;;;;;5127653;27;20503;-73
2022/11/03 08:54:53;;;;;;;9.63;4.97;;;10.70;99.90;;;;;;5127517;27;20448;-73
2022/11/03 08:57:20;;;;;;;17.37;5.87;;;10.70;99.90;;;;;;5128037;27;20450;-74
2022/11/03 08:59:46;;;;;;;11.77;5.57;;;10.70;99.90;;;;;;5126918;27;20858;-74
2022/11/03 09:02:14;;;;;;;14.00;6.23;;;10.80;99.90;;;;;;5126952;27;21028;-74
2022/11/03 09:04:41;;;;;;;13.03;6.10;;;10.80;99.90;;;;;;5127531;28;20481;-73
2022/11/03 09:07:08;;;;;;;16.27;7.20;;;11.10;99.90;;;;;;5127981;27;20441;-73
2022/11/03 09:09:34;;;;;;;36.47;7.00;;;11.30;99.90;;;;;;5128469;27;20442;-73
2022/11/03 09:12:01;;;;;;;9.50;5.87;;;11.60;99.90;;;;;;5127525;27;20503;-73
2022/11/03 09:14:28;;;;;;;12.10;6.17;;;11.70;99.90;;;;;;5127608;27;20822;-73
2022/11/03 09:16:54;;;;;;;15.93;5.77;;;11.80;99.90;;;;;;5127448;27;20445;-73
2022/11/03 09:19:22;;;;;;;13.57;6.57;;;11.90;99.90;;;;;;5127898;27;20836;-73
2022/11/03 09:21:51;;;;;;;28.87;8.20;;;12.00;99.90;;;;;;5127798;28;20445;-73
2022/11/03 09:24:17;;;;;;;16.47;6.00;;;12.10;99.90;;;;;;5128027;28;20446;-73
2022/11/03 09:26:44;;;;;;;14.97;5.63;;;12.30;99.90;;;;;;5127125;28;20498;-73
2022/11/03 09:29:11;;;;;;;10.23;5.57;;;12.50;99.90;;;;;;5126460;28;20495;-73
2022/11/03 09:31:37;;;;;;;8.67;5.37;;;12.70;99.90;;;;;;5125934;27;20453;-72
2022/11/03 09:34:04;;;;;;;13.30;5.43;;;12.90;99.90;;;;;;5126883;27;20879;-71
2022/11/03 09:36:32;;;;;;;20.13;5.90;;;12.90;99.90;;;;;;5127526;27;20473;-72
2022/11/03 09:38:59;;;;;;;10.30;5.73;;;12.50;99.90;;;;;;5129120;27;20456;-72
2022/11/03 09:41:25;;;;;;;13.20;5.40;;;12.10;99.90;;;;;;5128061;27;20452;-72
2022/11/03 09:43:53;;;;;;;11.20;6.03;;;11.90;99.90;;;;;;5125838;27;20462;-72
2022/11/03 09:46:20;;;;;;;10.50;5.00;;;11.70;99.90;;;;;;5128264;27;20490;-72
2022/11/03 09:48:46;;;;;;;17.43;6.53;;;11.60;99.90;;;;;;5128256;27;20446;-72
2022/11/03 09:51:18;;;;;;;13.07;5.40;;;11.50;99.90;;;;;;5126736;28;20447;-72
2022/11/03 09:53:46;;;;;;;14.40;5.60;;;11.40;99.90;;;;;;5128507;27;20471;-72
2022/11/03 09:56:13;;;;;;;17.57;6.27;;;11.30;99.90;;;;;;5130772;27;20449;-72
2022/11/03 09:58:41;;;;;;;16.80;5.80;;;11.30;99.90;;;;;;5130968;27;20448;-72
2022/11/03 10:01:10;;;;;;;12.50;5.07;;;11.30;99.90;;;;;;5130424;27;20461;-72
2022/11/03 10:03:38;;;;;;;14.40;5.10;;;11.30;99.90;;;;;;5129762;27;21033;-72
2022/11/03 10:06:05;;;;;;;7.73;5.30;;;11.20;99.90;;;;;;5131368;27;20572;-72
2022/11/03 10:08:34;;;;;;;11.10;5.10;;;11.20;99.90;;;;;;5130523;27;20461;-72
2022/11/03 10:11:04;;;;;;;14.90;6.80;;;11.20;99.90;;;;;;5127637;27;20454;-73
2022/11/03 10:13:33;;;;;;;9.70;6.00;;;11.40;99.90;;;;;;5130130;27;20502;-71
2022/11/03 10:16:01;;;;;;;9.80;5.30;;;11.40;99.90;;;;;;5128599;27;20446;-71
2022/11/03 10:18:29;;;;;;;9.90;5.03;;;11.50;99.90;;;;;;5130019;27;20446;-73
2022/11/03 10:21:05;;;;;;;12.80;6.33;;;11.50;99.90;;;;;;5129981;27;20446;-71
2022/11/03 10:23:32;;;;;;;14.43;6.00;;;11.60;99.90;;;;;;5128874;27;20887;-72
2022/11/03 10:26:10;;;;;;;19.23;5.73;;;11.60;99.90;;;;;;5129685;27;21783;-73
2022/11/03 10:28:37;;;;;;;12.30;5.50;;;11.60;99.90;;;;;;5128962;27;20532;-73
2022/11/03 10:31:07;;;;;;;11.67;6.07;;;11.70;99.90;;;;;;5127830;27;20506;-72
2022/11/03 10:33:36;;;;;;;18.53;6.10;;;11.60;99.90;;;;;;5129282;27;20835;-72
2022/11/03 10:36:04;;;;;;;13.30;6.00;;;11.60;99.90;;;;;;5130258;27;20442;-72
2022/11/03 10:38:33;;;;;;;13.17;6.20;;;11.50;99.90;;;;;;5129609;27;20529;-72
2022/11/03 10:41:16;;;;;;;9.63;6.03;;;11.40;99.90;;;;;;5128877;27;20477;-72
2022/11/03 10:43:44;;;;;;;13.50;6.17;;;11.30;99.90;;;;;;5128822;27;20465;-72
2022/11/03 10:46:18;;;;;;;10.07;6.40;;;11.20;99.90;;;;;;5127989;27;20542;-72
2022/11/03 10:48:44;;;;;;;14.40;6.27;;;11.10;99.90;;;;;;5126112;27;20462;-72
2022/11/03 10:51:12;;;;;;;13.30;6.67;;;11.10;99.90;;;;;;5128333;27;20961;-72
2022/11/03 10:53:41;;;;;;;8.20;6.00;;;11.00;99.90;;;;;;5130601;27;20463;-72
2022/11/03 10:56:08;;;;;;;16.93;6.60;;;10.90;99.90;;;;;;5128969;27;20450;-72
2022/11/03 10:58:36;;;;;;;14.83;6.10;;;10.90;99.90;;;;;;5128669;27;20990;-72
2022/11/03 11:01:04;;;;;;;14.77;6.53;;;10.80;99.90;;;;;;5128109;27;20452;-72
2022/11/03 11:03:31;;;;;;;11.10;6.83;;;10.90;99.90;;;;;;5128733;27;20462;-72
2022/11/03 11:05:58;;;;;;;15.30;6.53;;;10.90;99.90;;;;;;5128153;27;20473;-72
2022/11/03 11:08:24;;;;;;;10.10;6.07;;;11.10;99.90;;;;;;5128423;27;20553;-72
2022/11/03 11:10:51;;;;;;;15.17;6.77;;;11.10;99.90;;;;;;5128553;27;21008;-72
2022/11/03 11:13:29;;;;;;;19.53;7.10;;;11.20;99.90;;;;;;5128192;27;20469;-71
2022/11/03 11:15:59;;;;;;;12.37;7.00;;;11.20;99.90;;;;;;5128431;27;20455;-71
2022/11/03 11:19:09;;;;;;;14.93;6.97;;;11.30;99.90;;;;;;5128027;27;20446;-71
2022/11/03 11:22:01;;;;;;;12.73;7.07;;;11.40;99.90;;;;;;5129164;27;20446;-71
2022/11/03 11:24:56;;;;;;;17.13;6.70;;;11.40;99.90;;;;;;5095935;27;21014;-71
2022/11/03 11:28:06;;;;;;;13.73;7.20;;;11.40;99.90;;;;;;5128344;27;20449;-70
2022/11/03 11:31:24;;;;;;;16.73;7.20;;;11.40;99.90;;;;;;5128043;27;20446;-71
2022/11/03 11:34:15;;;;;;;24.17;7.17;;;11.50;99.90;;;;;;5127843;27;20466;-70
2022/11/03 11:36:46;;;;;;;17.50;6.93;;;11.40;99.90;;;;;;5127629;27;20434;-71
2022/11/03 11:39:34;;;;;;;13.97;6.20;;;11.40;99.90;;;;;;5127764;27;20524;-71
2022/11/03 11:42:09;;;;;;;17.67;7.10;;;11.50;99.90;;;;;;5127442;27;20987;-71
2022/11/03 11:44:56;;;;;;;14.40;7.20;;;11.50;99.90;;;;;;5127690;27;20441;-71
2022/11/03 11:47:55;;;;;;;19.87;8.40;;;11.60;99.90;;;;;;5127633;27;21112;-71
2022/11/03 11:50:31;;;;;;;15.80;6.73;;;11.70;99.90;;;;;;5127577;27;20444;-71
2022/11/03 11:53:12;;;;;;;13.30;6.87;;;11.70;99.90;;;;;;5127702;27;20460;-71
2022/11/03 11:55:43;;;;;;;15.30;7.27;;;11.80;99.90;;;;;;5128158;27;20449;-71
2022/11/03 11:58:19;;;;;;;14.80;6.40;;;11.80;99.90;;;;;;5126780;27;20498;-71
2022/11/03 12:00:54;;;;;;;18.77;6.30;;;11.90;99.90;;;;;;5127461;27;20444;-71
2022/11/03 12:03:29;;;;;;;17.03;6.33;;;11.90;99.90;;;;;;5126040;27;20468;-71
2022/11/03 12:05:55;;;;;;;13.63;7.27;;;11.80;99.90;;;;;;5126049;27;21026;-72
2022/11/03 12:08:28;;;;;;;15.40;6.50;;;11.80;99.90;;;;;;5127315;27;20461;-71
2022/11/03 12:10:57;;;;;;;21.50;7.30;;;11.80;99.90;;;;;;5126046;27;20564;-71
2022/11/03 12:13:57;;;;;;;17.20;6.50;;;11.80;99.90;;;;;;5127272;27;20557;-72
2022/11/03 12:16:28;;;;;;;9.90;5.67;;;11.70;99.90;;;;;;5126051;27;20463;-71
2022/11/03 12:18:56;;;;;;;15.70;6.30;;;11.70;99.90;;;;;;5126414;27;21448;-73
2022/11/03 12:21:46;;;;;;;10.73;7.10;;;11.70;99.90;;;;;;5126162;27;20530;-72
2022/11/03 12:24:35;;;;;;;10.83;5.57;;;11.70;99.90;;;;;;5114177;27;21243;-70
2022/11/03 12:27:03;;;;;;;17.07;5.90;;;11.70;99.90;;;;;;5126500;27;20492;-71
2022/11/03 12:29:30;;;;;;;9.30;5.10;;;11.70;99.90;;;;;;5126942;27;20454;-71
2022/11/03 12:31:57;;;;;;;12.13;5.63;;;11.70;99.90;;;;;;5125213;27;20453;-71
2022/11/03 12:34:23;;;;;;;14.57;5.73;;;11.70;99.90;;;;;;5127366;27;20454;-73
2022/11/03 12:36:51;;;;;;;16.13;5.27;;;11.70;99.90;;;;;;5126326;27;20445;-71
2022/11/03 12:39:17;;;;;;;8.57;5.50;;;11.80;99.90;;;;;;5125701;27;20481;-71
2022/11/03 12:41:45;;;;;;;13.30;5.80;;;11.80;99.90;;;;;;5128677;27;20449;-71
2022/11/03 12:44:12;;;;;;;11.37;5.20;;;11.80;99.90;;;;;;5126445;27;20458;-71
2022/11/03 12:46:39;;;;;;;9.20;5.63;;;11.90;99.90;;;;;;5126637;27;20501;-70
2022/11/03 12:49:05;;;;;;;10.63;5.47;;;11.90;99.90;;;;;;5125404;28;20528;-70
2022/11/03 12:51:32;;;;;;;8.67;5.60;;;11.90;99.90;;;;;;5126377;28;20441;-70
2022/11/03 12:53:59;;;;;;;9.10;5.80;;;11.90;99.90;;;;;;5125783;28;20478;-69
2022/11/03 12:56:25;;;;;;;9.53;5.40;;;11.90;99.90;;;;;;5125802;28;20450;-71
2022/11/03 12:58:53;;;;;;;15.63;6.87;;;11.80;99.90;;;;;;5126922;28;20448;-70
2022/11/03 13:01:21;;;;;;;14.13;6.47;;;11.70;99.90;;;;;;5125185;28;20464;-70
2022/11/03 13:03:47;;;;;;;10.00;5.87;;;11.70;99.90;;;;;;5126411;28;20476;-70
2022/11/03 13:06:14;;;;;;;8.53;5.70;;;11.70;99.90;;;;;;5125541;28;20489;-70
2022/11/03 13:08:41;;;;;;;16.93;6.83;;;11.70;99.90;;;;;;5127596;28;20441;-71
2022/11/03 13:12:30;;;;;;;16.47;6.10;;;11.70;99.90;;;;;;5125641;28;20467;-71
2022/11/03 13:13:58;;;;;;;14.70;6.97;;;11.70;99.90;;;;;;5126551;28;20469;-70
2022/11/03 13:16:24;;;;;;;14.73;6.47;;;11.70;99.90;;;;;;5126559;28;20453;-70